Time;durP1;ratioP1;P1;durP2;ratioP2;P2;SDS_P1;SDS_P2;PMS_P1;PMS_P2;Temp;Humidity;BMP_temperature;BMP_pressure;BME280_temperature;BME280_humidity;BME280_pressure;Samples;Min_cycle;Max_cycle;Signal;HPM_P1;HPM_P2
2023/09/27 00:00:32;;;;;;;8.63;3.97;;;;;;;;;;5054073;28;20037;-67
2023/09/27 00:02:59;;;;;;;7.50;3.97;;;;;;;;;;5052738;28;20044;-67
2023/09/27 00:05:27;;;;;;;8.00;3.83;;;;;;;;;;5053983;28;20041;-67
2023/09/27 00:07:56;;;;;;;8.77;4.15;;;;;;;;;;5053864;28;20033;-67
2023/09/27 00:10:24;;;;;;;10.73;4.55;;;;;;;;;;5053746;28;20487;-67
2023/09/27 00:12:51;;;;;;;11.05;4.43;;;;;;;;;;5053610;28;20071;-67
2023/09/27 00:15:19;;;;;;;11.30;4.25;;;;;;;;;;5054009;28;20115;-67
2023/09/27 00:17:46;;;;;;;9.32;4.38;;;;;;;;;;5053563;28;20037;-67
2023/09/27 00:20:17;;;;;;;7.57;4.00;;;;;;;;;;5053210;28;20075;-68
2023/09/27 00:22:45;;;;;;;7.70;4.03;;;;;;;;;;5053569;28;20090;-67
2023/09/27 00:25:14;;;;;;;13.68;4.43;;;;;;;;;;5053502;28;20152;-67
2023/09/27 00:27:41;;;;;;;8.52;4.15;;;;;;;;;;5053506;28;20079;-67
2023/09/27 00:30:13;;;;;;;8.57;3.90;;;;;;;;;;5052202;28;20165;-67
2023/09/27 00:32:42;;;;;;;7.07;3.88;;;;;;;;;;5053347;28;20045;-68
2023/09/27 00:35:14;;;;;;;8.73;4.82;;;;;;;;;;5052082;28;20037;-67
2023/09/27 00:37:42;;;;;;;10.93;4.53;;;;;;;;;;5051861;28;20438;-67
2023/09/27 00:40:10;;;;;;;6.53;4.30;;;;;;;;;;5052716;28;20102;-67
2023/09/27 00:42:38;;;;;;;9.88;3.92;;;;;;;;;;5051925;28;20045;-67
2023/09/27 00:45:06;;;;;;;6.88;4.07;;;;;;;;;;5051981;28;20429;-67
2023/09/27 00:47:34;;;;;;;9.68;4.38;;;;;;;;;;5051532;28;20057;-67
2023/09/27 00:50:02;;;;;;;9.75;4.38;;;;;;;;;;5051758;28;20041;-68
2023/09/27 00:52:32;;;;;;;9.10;4.13;;;;;;;;;;5051661;28;20055;-67
2023/09/27 00:54:59;;;;;;;7.75;4.28;;;;;;;;;;5051747;28;20037;-68
2023/09/27 00:57:27;;;;;;;13.10;4.65;;;;;;;;;;5051576;28;20037;-67
2023/09/27 00:59:55;;;;;;;7.68;4.57;;;;;;;;;;5052959;28;20067;-67
2023/09/27 01:02:23;;;;;;;6.15;4.00;;;;;;;;;;5052839;28;20379;-67
2023/09/27 01:04:51;;;;;;;13.60;4.70;;;;;;;;;;5053123;28;20106;-67
2023/09/27 01:07:18;;;;;;;8.20;4.40;;;;;;;;;;5051597;28;20068;-67
2023/09/27 01:09:46;;;;;;;9.73;4.47;;;;;;;;;;5051414;28;20102;-66
2023/09/27 01:12:13;;;;;;;9.70;4.25;;;;;;;;;;5051524;28;20045;-67
2023/09/27 01:14:42;;;;;;;8.45;4.13;;;;;;;;;;5051477;28;20128;-67
2023/09/27 01:17:10;;;;;;;9.13;4.10;;;;;;;;;;5051627;28;20048;-67
2023/09/27 01:19:38;;;;;;;9.50;4.70;;;;;;;;;;5055226;28;20068;-67
2023/09/27 01:22:06;;;;;;;9.45;4.43;;;;;;;;;;5055840;28;20052;-67
2023/09/27 01:24:37;;;;;;;8.38;4.30;;;;;;;;;;5052758;28;20065;-67
2023/09/27 01:27:10;;;;;;;8.25;4.10;;;;;;;;;;5051689;28;20051;-67
2023/09/27 01:29:38;;;;;;;8.90;4.32;;;;;;;;;;5052448;28;20037;-67
2023/09/27 01:32:06;;;;;;;8.93;4.10;;;;;;;;;;5052465;28;20036;-67
2023/09/27 01:34:33;;;;;;;5.80;3.85;;;;;;;;;;5051240;28;20056;-67
2023/09/27 01:37:02;;;;;;;10.30;4.65;;;;;;;;;;5051110;28;20483;-67
2023/09/27 01:39:30;;;;;;;8.13;4.35;;;;;;;;;;5051180;28;20052;-67
2023/09/27 01:41:58;;;;;;;6.85;3.97;;;;;;;;;;5052383;28;20037;-67
2023/09/27 01:44:25;;;;;;;6.13;4.20;;;;;;;;;;5051044;28;20049;-67
2023/09/27 01:46:53;;;;;;;10.07;4.32;;;;;;;;;;5050865;28;20067;-67
2023/09/27 01:49:22;;;;;;;6.47;3.80;;;;;;;;;;5052399;28;20068;-67
2023/09/27 01:51:50;;;;;;;9.63;4.30;;;;;;;;;;5051103;28;20052;-67
2023/09/27 01:54:17;;;;;;;11.15;4.32;;;;;;;;;;5052174;28;20033;-67
2023/09/27 01:56:45;;;;;;;11.70;4.13;;;;;;;;;;5050845;28;20550;-66
2023/09/27 01:59:12;;;;;;;14.43;4.38;;;;;;;;;;5050882;28;20060;-66
2023/09/27 02:01:40;;;;;;;6.47;3.90;;;;;;;;;;5050934;28;20123;-66
2023/09/27 02:04:08;;;;;;;9.70;4.13;;;;;;;;;;5050861;28;20037;-66
2023/09/27 02:06:36;;;;;;;9.32;4.45;;;;;;;;;;5052077;28;20124;-66
2023/09/27 02:09:04;;;;;;;7.25;4.00;;;;;;;;;;5050774;28;20486;-67
2023/09/27 02:11:33;;;;;;;7.32;4.50;;;;;;;;;;5034294;28;20049;-67
2023/09/27 02:14:04;;;;;;;10.77;4.35;;;;;;;;;;5050871;28;20048;-67
2023/09/27 02:16:33;;;;;;;9.35;4.10;;;;;;;;;;5050792;28;20402;-67
2023/09/27 02:19:04;;;;;;;9.75;4.10;;;;;;;;;;5050692;28;20045;-67
2023/09/27 02:21:32;;;;;;;8.68;5.05;;;;;;;;;;5052071;28;20037;-67
2023/09/27 02:23:59;;;;;;;8.13;4.43;;;;;;;;;;5051942;28;20044;-67
2023/09/27 02:26:27;;;;;;;9.45;4.38;;;;;;;;;;5050483;28;20052;-67
2023/09/27 02:28:54;;;;;;;12.07;4.10;;;;;;;;;;5051917;28;20095;-67
2023/09/27 02:31:22;;;;;;;9.95;4.20;;;;;;;;;;5050525;28;20494;-67
2023/09/27 02:33:50;;;;;;;10.18;4.15;;;;;;;;;;5050667;28;20045;-67
2023/09/27 02:36:18;;;;;;;10.05;3.92;;;;;;;;;;5051875;28;20041;-67
2023/09/27 02:38:45;;;;;;;14.77;4.47;;;;;;;;;;5050416;28;20490;-67
2023/09/27 02:41:13;;;;;;;12.73;4.47;;;;;;;;;;5051764;28;20041;-67
2023/09/27 02:43:41;;;;;;;11.50;4.68;;;;;;;;;;5055459;28;20049;-67
2023/09/27 02:46:08;;;;;;;10.02;4.28;;;;;;;;;;5054319;28;20128;-67
2023/09/27 02:48:36;;;;;;;7.55;4.03;;;;;;;;;;5053863;28;20079;-67
2023/09/27 02:51:05;;;;;;;10.90;3.58;;;;;;;;;;5054074;28;20405;-68
2023/09/27 02:53:33;;;;;;;8.77;4.22;;;;;;;;;;5053864;28;20486;-69
2023/09/27 02:56:00;;;;;;;10.48;4.13;;;;;;;;;;5055229;28;20123;-68
2023/09/27 02:58:28;;;;;;;10.95;4.22;;;;;;;;;;5053775;28;20056;-69
2023/09/27 03:00:55;;;;;;;9.98;3.80;;;;;;;;;;5037268;28;20041;-69
2023/09/27 03:03:24;;;;;;;7.55;3.90;;;;;;;;;;5053816;28;20075;-69
2023/09/27 03:05:52;;;;;;;9.65;4.32;;;;;;;;;;5055016;28;20041;-68
2023/09/27 03:08:20;;;;;;;7.53;4.07;;;;;;;;;;5053551;28;20049;-68
2023/09/27 03:10:48;;;;;;;8.77;4.72;;;;;;;;;;5037433;28;20047;-69
2023/09/27 03:13:15;;;;;;;11.32;4.63;;;;;;;;;;5054790;28;20099;-68
2023/09/27 03:15:46;;;;;;;20.17;4.97;;;;;;;;;;5053509;28;20578;-67
2023/09/27 03:18:13;;;;;;;7.93;3.75;;;;;;;;;;5053448;28;20040;-67
2023/09/27 03:20:41;;;;;;;12.30;4.50;;;;;;;;;;5053412;28;20079;-67
2023/09/27 03:23:09;;;;;;;12.27;4.50;;;;;;;;;;5053593;28;20052;-67
2023/09/27 03:25:36;;;;;;;7.80;4.10;;;;;;;;;;5053300;28;20040;-67
2023/09/27 03:28:04;;;;;;;10.48;4.35;;;;;;;;;;5037013;28;20049;-68
2023/09/27 03:30:32;;;;;;;8.27;4.03;;;;;;;;;;5053270;28;20045;-69
2023/09/27 03:32:59;;;;;;;8.40;4.13;;;;;;;;;;5053264;28;20422;-67
2023/09/27 03:35:27;;;;;;;15.55;4.00;;;;;;;;;;5053209;28;20048;-66
2023/09/27 03:37:56;;;;;;;8.50;4.50;;;;;;;;;;5053004;28;20080;-68
2023/09/27 03:40:24;;;;;;;10.43;3.92;;;;;;;;;;5054396;28;20036;-69
2023/09/27 03:42:52;;;;;;;9.90;4.25;;;;;;;;;;5053132;28;20147;-66
2023/09/27 03:45:20;;;;;;;8.85;3.78;;;;;;;;;;5053024;28;20048;-66
2023/09/27 03:47:48;;;;;;;9.25;4.18;;;;;;;;;;5052682;28;20060;-66
2023/09/27 03:50:25;;;;;;;9.30;3.80;;;;;;;;;;5053144;28;20375;-67
2023/09/27 03:52:56;;;;;;;14.05;4.93;;;;;;;;;;5052454;28;20037;-68
2023/09/27 03:55:24;;;;;;;11.25;4.20;;;;;;;;;;5052796;28;20136;-66
2023/09/27 03:57:52;;;;;;;13.85;4.57;;;;;;;;;;5053901;28;20051;-67
2023/09/27 04:00:20;;;;;;;14.10;4.82;;;;;;;;;;5053936;28;20099;-67
2023/09/27 04:02:48;;;;;;;16.38;4.65;;;;;;;;;;5052614;28;20132;-67
2023/09/27 04:05:22;;;;;;;8.25;4.65;;;;;;;;;;5052708;28;20045;-67
2023/09/27 04:07:50;;;;;;;11.88;4.40;;;;;;;;;;5052696;28;20408;-67
2023/09/27 04:10:19;;;;;;;12.98;4.75;;;;;;;;;;5052560;28;20048;-69
2023/09/27 04:12:47;;;;;;;8.77;4.60;;;;;;;;;;5053802;28;20108;-68
2023/09/27 04:15:16;;;;;;;13.85;4.63;;;;;;;;;;5052567;28;20043;-68
2023/09/27 04:17:43;;;;;;;13.25;4.20;;;;;;;;;;5052448;28;20437;-67
2023/09/27 04:20:17;;;;;;;15.90;4.63;;;;;;;;;;5053377;28;20510;-67
2023/09/27 04:22:49;;;;;;;11.25;4.68;;;;;;;;;;5052325;28;20453;-67
2023/09/27 04:25:18;;;;;;;12.75;4.50;;;;;;;;;;5053611;28;20041;-67
2023/09/27 04:27:47;;;;;;;12.45;4.78;;;;;;;;;;5053403;28;20117;-67
2023/09/27 04:30:15;;;;;;;14.40;5.00;;;;;;;;;;5053457;28;20119;-67
2023/09/27 04:32:43;;;;;;;14.98;5.20;;;;;;;;;;5053368;28;20123;-66
2023/09/27 04:35:13;;;;;;;17.75;4.72;;;;;;;;;;5053313;28;20390;-67
2023/09/27 04:37:40;;;;;;;13.13;5.05;;;;;;;;;;5053121;28;20048;-68
2023/09/27 04:40:11;;;;;;;18.88;4.70;;;;;;;;;;5053252;28;20128;-67
2023/09/27 04:42:40;;;;;;;17.90;4.82;;;;;;;;;;5053070;28;20041;-67
2023/09/27 04:45:08;;;;;;;21.83;5.78;;;;;;;;;;5053577;28;20044;-67
2023/09/27 04:47:36;;;;;;;14.25;5.32;;;;;;;;;;5053025;28;20130;-67
2023/09/27 04:50:06;;;;;;;19.75;5.82;;;;;;;;;;5053131;28;20060;-68
2023/09/27 04:52:34;;;;;;;15.23;5.20;;;;;;;;;;5052998;28;20041;-68
2023/09/27 04:55:02;;;;;;;32.50;6.57;;;;;;;;;;5052959;28;20433;-67
2023/09/27 04:57:29;;;;;;;35.30;11.32;;;;;;;;;;5052814;28;20040;-68
2023/09/27 04:59:57;;;;;;;26.20;7.30;;;;;;;;;;5052891;28;20037;-68
2023/09/27 05:02:25;;;;;;;29.17;7.93;;;;;;;;;;5051396;28;20099;-69
2023/09/27 05:04:53;;;;;;;21.08;7.35;;;;;;;;;;5052651;28;20060;-68
2023/09/27 05:07:21;;;;;;;24.95;8.38;;;;;;;;;;5052807;28;20121;-68
2023/09/27 05:09:48;;;;;;;20.67;7.20;;;;;;;;;;5052834;28;20421;-68
2023/09/27 05:12:16;;;;;;;24.35;11.52;;;;;;;;;;5052729;28;20090;-69
2023/09/27 05:14:44;;;;;;;23.15;11.50;;;;;;;;;;5052639;28;20047;-69
2023/09/27 05:17:11;;;;;;;19.35;11.00;;;;;;;;;;5052645;28;20037;-69
2023/09/27 05:19:39;;;;;;;21.20;10.90;;;;;;;;;;5052619;28;20387;-68
2023/09/27 05:22:06;;;;;;;26.67;10.38;;;;;;;;;;5052537;28;20071;-69
2023/09/27 05:24:38;;;;;;;18.25;9.23;;;;;;;;;;5052873;28;20418;-68
2023/09/27 05:27:07;;;;;;;19.58;9.00;;;;;;;;;;5052548;28;20037;-69
2023/09/27 05:29:35;;;;;;;18.25;8.32;;;;;;;;;;5052253;28;20045;-67
2023/09/27 05:32:03;;;;;;;16.52;8.38;;;;;;;;;;5051222;28;20387;-67
2023/09/27 05:34:31;;;;;;;20.52;8.60;;;;;;;;;;5052488;28;20041;-67
2023/09/27 05:36:58;;;;;;;19.17;8.70;;;;;;;;;;5052496;28;20106;-69
2023/09/27 05:39:26;;;;;;;23.42;8.65;;;;;;;;;;5052705;28;20037;-69
2023/09/27 05:41:54;;;;;;;18.75;8.20;;;;;;;;;;5052270;28;20120;-69
2023/09/27 05:44:21;;;;;;;23.38;9.48;;;;;;;;;;5052395;28;20041;-68
2023/09/27 05:46:49;;;;;;;40.92;18.00;;;;;;;;;;5052335;28;20037;-68
2023/09/27 05:49:16;;;;;;;33.30;14.20;;;;;;;;;;5052203;28;20033;-68
2023/09/27 05:51:44;;;;;;;57.42;28.05;;;;;;;;;;5052572;28;20414;-68
2023/09/27 05:54:12;;;;;;;55.97;25.98;;;;;;;;;;5052333;28;20055;-68
2023/09/27 05:56:39;;;;;;;57.75;24.27;;;;;;;;;;5051377;28;20041;-68
2023/09/27 05:59:11;;;;;;;36.42;14.73;;;;;;;;;;5052174;28;20045;-68
2023/09/27 06:01:39;;;;;;;39.67;15.73;;;;;;;;;;5051173;28;20469;-68
2023/09/27 06:04:07;;;;;;;26.73;13.68;;;;;;;;;;5052819;28;20044;-67
2023/09/27 06:06:36;;;;;;;26.83;10.57;;;;;;;;;;5052143;28;20060;-67
2023/09/27 06:09:09;;;;;;;16.90;7.82;;;;;;;;;;5052300;28;20434;-67
2023/09/27 06:11:36;;;;;;;22.95;8.57;;;;;;;;;;5052265;28;20052;-66
2023/09/27 06:14:10;;;;;;;16.73;8.82;;;;;;;;;;5052135;28;20045;-67
2023/09/27 06:16:39;;;;;;;16.42;8.57;;;;;;;;;;5052986;28;20068;-67
2023/09/27 06:19:09;;;;;;;25.17;12.30;;;;;;;;;;5055810;28;20076;-67
2023/09/27 06:21:39;;;;;;;24.00;10.63;;;;;;;;;;5055990;28;20112;-68
2023/09/27 06:24:07;;;;;;;18.35;9.57;;;;;;;;;;5055791;28;20055;-68
2023/09/27 06:26:35;;;;;;;17.13;8.10;;;;;;;;;;5055842;28;20148;-68
2023/09/27 06:29:02;;;;;;;18.50;7.80;;;;;;;;;;5055830;28;20079;-68
2023/09/27 06:31:30;;;;;;;14.90;6.97;;;;;;;;;;5055926;28;20033;-68
2023/09/27 06:33:58;;;;;;;13.75;5.47;;;;;;;;;;5054491;28;20059;-68
2023/09/27 06:36:29;;;;;;;14.95;5.38;;;;;;;;;;5056018;28;20501;-68
2023/09/27 06:38:57;;;;;;;15.55;4.93;;;;;;;;;;5055522;28;20040;-68
2023/09/27 06:41:24;;;;;;;13.00;5.80;;;;;;;;;;5055556;28;20048;-67
2023/09/27 06:43:53;;;;;;;13.05;5.22;;;;;;;;;;5055387;28;20044;-68
2023/09/27 06:46:22;;;;;;;12.65;5.57;;;;;;;;;;5055548;28;20390;-67
2023/09/27 06:48:54;;;;;;;12.85;5.43;;;;;;;;;;5055490;28;20079;-68
2023/09/27 06:51:21;;;;;;;12.63;4.90;;;;;;;;;;5055460;28;20072;-68
2023/09/27 06:53:49;;;;;;;12.63;5.28;;;;;;;;;;5055624;28;20045;-69
2023/09/27 06:56:17;;;;;;;13.93;5.35;;;;;;;;;;5055309;28;20049;-69
2023/09/27 06:58:44;;;;;;;10.90;5.13;;;;;;;;;;5055143;28;20041;-68
2023/09/27 07:01:13;;;;;;;16.70;5.15;;;;;;;;;;5055122;28;20037;-68
2023/09/27 07:03:41;;;;;;;12.23;5.85;;;;;;;;;;5055191;28;20045;-68
2023/09/27 07:06:09;;;;;;;14.20;5.28;;;;;;;;;;5055073;28;20041;-68
2023/09/27 07:08:37;;;;;;;18.02;5.28;;;;;;;;;;5054881;28;20094;-68
2023/09/27 07:11:08;;;;;;;12.45;4.93;;;;;;;;;;5053825;28;20040;-69
2023/09/27 07:13:40;;;;;;;14.50;5.43;;;;;;;;;;5053935;28;20075;-68
2023/09/27 07:16:27;;;;;;;7.40;5.00;;;;;;;;;;5054753;28;20048;-68
2023/09/27 07:18:55;;;;;;;10.60;4.70;;;;;;;;;;5054828;28;20490;-68
2023/09/27 07:21:24;;;;;;;12.23;4.88;;;;;;;;;;5054761;28;20148;-68
2023/09/27 07:23:52;;;;;;;12.98;5.22;;;;;;;;;;5053457;28;20132;-68
2023/09/27 07:26:20;;;;;;;8.57;4.47;;;;;;;;;;5054831;28;20593;-68
2023/09/27 07:28:48;;;;;;;10.27;5.07;;;;;;;;;;5052947;28;20414;-69
2023/09/27 07:31:17;;;;;;;11.95;4.85;;;;;;;;;;5054740;28;20553;-69
2023/09/27 07:33:52;;;;;;;7.80;4.60;;;;;;;;;;5054520;28;20049;-69
2023/09/27 07:36:22;;;;;;;16.95;5.53;;;;;;;;;;5054670;28;20033;-69
2023/09/27 07:38:50;;;;;;;16.85;5.25;;;;;;;;;;5054608;28;20045;-70
2023/09/27 07:41:18;;;;;;;9.63;4.65;;;;;;;;;;5054456;28;20041;-68
2023/09/27 07:43:47;;;;;;;12.15;5.32;;;;;;;;;;5053118;28;20493;-68
2023/09/27 07:46:17;;;;;;;12.60;4.90;;;;;;;;;;5053254;28;20045;-69
2023/09/27 07:48:45;;;;;;;10.70;4.38;;;;;;;;;;5053019;28;20379;-67
2023/09/27 07:51:13;;;;;;;11.10;4.57;;;;;;;;;;5054378;28;20041;-67
2023/09/27 07:53:41;;;;;;;12.63;4.53;;;;;;;;;;5054435;28;20060;-67
2023/09/27 07:56:17;;;;;;;13.10;5.45;;;;;;;;;;5054079;28;20045;-67
2023/09/27 07:58:45;;;;;;;14.95;5.40;;;;;;;;;;5054102;28;20029;-67
2023/09/27 08:01:13;;;;;;;20.10;4.80;;;;;;;;;;5054085;28;20560;-69
2023/09/27 08:03:40;;;;;;;11.52;4.85;;;;;;;;;;5053908;28;20408;-67
2023/09/27 08:06:08;;;;;;;12.15;4.45;;;;;;;;;;5053909;28;20048;-68
2023/09/27 08:08:35;;;;;;;13.27;4.22;;;;;;;;;;5054157;28;20414;-67
2023/09/27 08:11:03;;;;;;;14.50;3.85;;;;;;;;;;5053982;28;20037;-67
2023/09/27 08:13:31;;;;;;;7.70;4.30;;;;;;;;;;5053743;28;20049;-67
2023/09/27 08:15:59;;;;;;;11.88;4.18;;;;;;;;;;5053869;28;20608;-67
2023/09/27 08:18:27;;;;;;;11.60;4.28;;;;;;;;;;5053598;28;20050;-67
2023/09/27 08:20:55;;;;;;;7.57;3.72;;;;;;;;;;5053727;28;20127;-67
2023/09/27 08:23:22;;;;;;;7.10;3.70;;;;;;;;;;5053855;28;20037;-67
2023/09/27 08:25:50;;;;;;;11.18;5.32;;;;;;;;;;5053605;28;20041;-68
2023/09/27 08:28:18;;;;;;;11.48;4.90;;;;;;;;;;5053670;28;20163;-67
2023/09/27 08:30:45;;;;;;;10.43;5.03;;;;;;;;;;5053444;28;20044;-67
2023/09/27 08:33:13;;;;;;;12.07;4.30;;;;;;;;;;5053460;28;20399;-67
2023/09/27 08:35:41;;;;;;;14.80;4.35;;;;;;;;;;5053431;28;20037;-69
2023/09/27 08:38:09;;;;;;;11.68;4.07;;;;;;;;;;5053441;28;20048;-70
2023/09/27 08:40:38;;;;;;;13.77;4.38;;;;;;;;;;5052472;28;20049;-68
2023/09/27 08:43:05;;;;;;;8.00;3.92;;;;;;;;;;5053300;28;20091;-68
2023/09/27 08:45:36;;;;;;;9.38;3.70;;;;;;;;;;5051923;28;20375;-68
2023/09/27 08:48:04;;;;;;;12.13;5.63;;;;;;;;;;5053142;28;20517;-68
2023/09/27 08:50:32;;;;;;;8.93;4.22;;;;;;;;;;5053386;28;20037;-68
2023/09/27 08:53:00;;;;;;;12.68;4.20;;;;;;;;;;5053096;28;20080;-69
2023/09/27 08:55:27;;;;;;;7.85;3.85;;;;;;;;;;5053210;28;20068;-68
2023/09/27 08:57:56;;;;;;;10.32;4.45;;;;;;;;;;5053059;28;20083;-68
2023/09/27 09:00:26;;;;;;;10.95;5.90;;;;;;;;;;5052971;28;20037;-68
2023/09/27 09:03:00;;;;;;;11.13;3.72;;;;;;;;;;5053287;28;20049;-68
2023/09/27 09:05:29;;;;;;;8.85;3.80;;;;;;;;;;5052849;28;20044;-68
2023/09/27 09:08:01;;;;;;;9.18;3.55;;;;;;;;;;5052934;28;20037;-68
2023/09/27 09:10:29;;;;;;;10.68;3.72;;;;;;;;;;5052825;28;20037;-68
2023/09/27 09:12:59;;;;;;;6.88;3.75;;;;;;;;;;5052613;28;20047;-68
2023/09/27 09:15:40;;;;;;;9.18;4.40;;;;;;;;;;5052730;28;20106;-68
2023/09/27 09:18:14;;;;;;;10.88;4.43;;;;;;;;;;5052945;28;20099;-68
2023/09/27 09:20:54;;;;;;;11.05;4.15;;;;;;;;;;5052616;28;20040;-68
2023/09/27 09:23:30;;;;;;;8.43;4.03;;;;;;;;;;5052648;28;20041;-68
2023/09/27 09:25:58;;;;;;;8.85;3.97;;;;;;;;;;5053032;28;20056;-68
2023/09/27 09:28:26;;;;;;;9.05;3.70;;;;;;;;;;5052643;28;20120;-68
2023/09/27 09:30:54;;;;;;;12.80;4.07;;;;;;;;;;5052572;28;20067;-69
2023/09/27 09:33:28;;;;;;;10.77;4.03;;;;;;;;;;5052780;28;20055;-68
2023/09/27 09:35:56;;;;;;;10.40;4.10;;;;;;;;;;5052684;28;20041;-69
2023/09/27 09:38:30;;;;;;;9.27;4.10;;;;;;;;;;5051173;28;20049;-68
2023/09/27 09:40:58;;;;;;;;;;;;;;;;;;5052848;28;20041;-68
2023/09/27 09:43:33;;;;;;;7.93;4.00;;;;;;;;;;5052974;28;19960;-67
2023/09/27 09:46:03;;;;;;;9.63;3.72;;;;;;;;;;5052883;28;20130;-68
2023/09/27 09:48:33;;;;;;;10.70;4.28;;;;;;;;;;5052202;28;20091;-67
2023/09/27 09:51:06;;;;;;;10.70;4.32;;;;;;;;;;5053567;28;20060;-68
2023/09/27 09:53:38;;;;;;;9.57;4.18;;;;;;;;;;5056258;28;20403;-67
2023/09/27 09:56:10;;;;;;;14.98;4.97;;;;;;;;;;5056372;28;20095;-68
2023/09/27 09:59:03;;;;;;;12.02;5.43;;;;;;;;;;5056473;28;20090;-68
2023/09/27 10:01:39;;;;;;;7.68;3.97;;;;;;;;;;5056317;28;20044;-68
2023/09/27 10:04:07;;;;;;;10.70;4.60;;;;;;;;;;5056442;28;20029;-68
2023/09/27 10:06:37;;;;;;;8.65;4.07;;;;;;;;;;5056508;28;20095;-68
2023/09/27 10:09:16;;;;;;;12.25;3.65;;;;;;;;;;5056071;28;20055;-68
2023/09/27 10:11:44;;;;;;;7.88;3.75;;;;;;;;;;5056178;28;20562;-68
2023/09/27 10:14:16;;;;;;;9.43;3.75;;;;;;;;;;5056190;28;20452;-68
2023/09/27 10:16:44;;;;;;;9.00;3.80;;;;;;;;;;5056044;28;20036;-69
2023/09/27 10:19:13;;;;;;;11.32;4.32;;;;;;;;;;5055928;28;20040;-68
2023/09/27 10:22:19;;;;;;;19.40;3.92;;;;;;;;;;5056161;28;20052;-68
2023/09/27 10:24:46;;;;;;;13.32;3.75;;;;;;;;;;5035452;28;20064;-68
2023/09/27 10:27:14;;;;;;;15.13;3.50;;;;;;;;;;5056328;28;20037;-67
2023/09/27 10:29:57;;;;;;;10.38;3.50;;;;;;;;;;5055822;28;20037;-68
2023/09/27 10:32:25;;;;;;;9.73;3.08;;;;;;;;;;5055848;28;20490;-68
2023/09/27 10:34:53;;;;;;;9.88;3.47;;;;;;;;;;5056110;28;20080;-68
2023/09/27 10:37:39;;;;;;;10.63;3.42;;;;;;;;;;5055634;28;20123;-68
2023/09/27 10:40:20;;;;;;;7.82;3.60;;;;;;;;;;5055495;28;20124;-68
2023/09/27 10:42:48;;;;;;;11.20;3.55;;;;;;;;;;5055805;28;20065;-68
2023/09/27 10:45:17;;;;;;;9.68;3.67;;;;;;;;;;5055492;28;20047;-68
2023/09/27 10:47:46;;;;;;;9.85;3.97;;;;;;;;;;5054287;28;20431;-68
2023/09/27 10:50:16;;;;;;;8.82;3.63;;;;;;;;;;5055460;28;20501;-67
2023/09/27 10:52:44;;;;;;;6.30;3.58;;;;;;;;;;5055386;28;20068;-68
2023/09/27 10:55:12;;;;;;;14.50;3.75;;;;;;;;;;5055427;28;20116;-68
2023/09/27 10:57:41;;;;;;;6.38;3.05;;;;;;;;;;5055340;28;20379;-68
2023/09/27 11:00:10;;;;;;;9.80;3.13;;;;;;;;;;5055343;28;20053;-67
2023/09/27 11:02:38;;;;;;;8.88;3.75;;;;;;;;;;5054514;28;20116;-68
2023/09/27 11:05:07;;;;;;;11.02;3.80;;;;;;;;;;5055405;28;20049;-68
2023/09/27 11:07:45;;;;;;;5.30;3.20;;;;;;;;;;5055383;28;20049;-68
2023/09/27 11:10:18;;;;;;;10.98;3.20;;;;;;;;;;5054953;28;20048;-68
2023/09/27 11:12:46;;;;;;;4.68;2.85;;;;;;;;;;5054875;28;20118;-68
2023/09/27 11:15:23;;;;;;;6.53;2.72;;;;;;;;;;5037073;28;20090;-68
2023/09/27 11:17:56;;;;;;;9.05;2.95;;;;;;;;;;5054759;28;20087;-68
2023/09/27 11:20:24;;;;;;;7.50;3.10;;;;;;;;;;5045415;28;20037;-68
2023/09/27 11:22:58;;;;;;;7.22;2.83;;;;;;;;;;5047210;28;20128;-67
2023/09/27 11:25:27;;;;;;;8.45;3.17;;;;;;;;;;5037806;28;20047;-68
2023/09/27 11:27:55;;;;;;;4.72;2.70;;;;;;;;;;5039254;28;20047;-68
2023/09/27 11:30:30;;;;;;;7.32;2.78;;;;;;;;;;5035108;28;20590;-68
2023/09/27 11:33:03;;;;;;;10.10;3.10;;;;;;;;;;5036261;28;20049;-69
2023/09/27 11:35:31;;;;;;;6.97;2.90;;;;;;;;;;5037532;28;20483;-69
2023/09/27 11:38:07;;;;;;;8.63;3.13;;;;;;;;;;5046663;28;20041;-69
2023/09/27 11:40:36;;;;;;;10.30;3.00;;;;;;;;;;5042885;28;20127;-69
2023/09/27 11:43:03;;;;;;;7.30;2.92;;;;;;;;;;5038697;28;20045;-69
2023/09/27 11:45:44;;;;;;;9.65;3.65;;;;;;;;;;5039550;28;20407;-69
2023/09/27 11:48:12;;;;;;;6.78;2.97;;;;;;;;;;5042981;28;20079;-69
2023/09/27 11:50:40;;;;;;;5.72;3.00;;;;;;;;;;5043885;28;20037;-68
2023/09/27 11:53:08;;;;;;;11.30;3.30;;;;;;;;;;5035970;28;20041;-69
2023/09/27 11:55:36;;;;;;;9.52;2.70;;;;;;;;;;5040607;28;20052;-69
2023/09/27 11:58:05;;;;;;;10.60;3.10;;;;;;;;;;5049364;28;20068;-69
2023/09/27 12:00:32;;;;;;;9.10;2.90;;;;;;;;;;5055620;28;20096;-69
2023/09/27 12:03:00;;;;;;;5.75;2.55;;;;;;;;;;5034047;28;20273;-69
2023/09/27 12:05:28;;;;;;;7.65;2.90;;;;;;;;;;5034298;28;20092;-68
2023/09/27 12:07:56;;;;;;;7.13;2.72;;;;;;;;;;5034149;28;20099;-69
2023/09/27 12:10:24;;;;;;;8.70;3.47;;;;;;;;;;5033999;28;20052;-68
2023/09/27 12:12:52;;;;;;;9.57;3.22;;;;;;;;;;5034008;28;20033;-69
2023/09/27 12:15:19;;;;;;;7.85;2.70;;;;;;;;;;5032713;28;20046;-69
2023/09/27 12:17:47;;;;;;;11.88;3.03;;;;;;;;;;5033924;28;20045;-68
2023/09/27 12:20:14;;;;;;;8.20;3.00;;;;;;;;;;5033979;28;20049;-69
2023/09/27 12:23:02;;;;;;;8.00;3.90;;;;;;;;;;5033882;28;20132;-69
2023/09/27 12:25:31;;;;;;;11.20;5.35;;;;;;;;;;5034194;28;20033;-68
2023/09/27 12:27:59;;;;;;;11.07;5.55;;;;;;;;;;5033909;28;20045;-69
2023/09/27 12:30:27;;;;;;;8.35;3.70;;;;;;;;;;5033710;28;20476;-68
2023/09/27 12:32:55;;;;;;;15.80;3.50;;;;;;;;;;5033603;28;20476;-69
2023/09/27 12:35:23;;;;;;;6.93;2.75;;;;;;;;;;5033637;28;20088;-68
2023/09/27 12:37:51;;;;;;;11.02;3.00;;;;;;;;;;5033954;28;20044;-68
2023/09/27 12:40:18;;;;;;;7.45;3.00;;;;;;;;;;5033487;28;20526;-69
2023/09/27 12:42:46;;;;;;;6.45;2.60;;;;;;;;;;5033734;28;20041;-68
2023/09/27 12:45:13;;;;;;;12.98;3.00;;;;;;;;;;5033592;28;20559;-68
2023/09/27 12:47:41;;;;;;;8.13;3.30;;;;;;;;;;5033127;28;20148;-69
2023/09/27 12:50:09;;;;;;;6.15;2.65;;;;;;;;;;5033265;28;20045;-68
2023/09/27 12:52:38;;;;;;;9.35;2.70;;;;;;;;;;5033290;28;20052;-68
2023/09/27 12:55:05;;;;;;;10.75;2.55;;;;;;;;;;5048346;28;20057;-69
2023/09/27 12:57:33;;;;;;;9.77;2.70;;;;;;;;;;5033245;28;20276;-68
2023/09/27 13:00:01;;;;;;;11.00;2.80;;;;;;;;;;5032937;28;20052;-69
2023/09/27 13:02:30;;;;;;;7.90;2.70;;;;;;;;;;5048164;28;20545;-69
2023/09/27 13:04:59;;;;;;;9.98;3.28;;;;;;;;;;5032996;28;20099;-69
2023/09/27 13:07:26;;;;;;;12.77;3.20;;;;;;;;;;5032859;28;20045;-69
2023/09/27 13:09:54;;;;;;;8.80;2.75;;;;;;;;;;5033105;28;20125;-69
2023/09/27 13:12:21;;;;;;;6.72;2.60;;;;;;;;;;5033128;28;20538;-68
2023/09/27 13:14:49;;;;;;;6.88;3.05;;;;;;;;;;5033123;28;20038;-69
2023/09/27 13:17:17;;;;;;;14.70;3.10;;;;;;;;;;5032855;28;20063;-67
2023/09/27 13:19:44;;;;;;;9.63;3.45;;;;;;;;;;5032624;28;20495;-68
2023/09/27 13:22:12;;;;;;;19.17;6.78;;;;;;;;;;5032714;28;20487;-69
2023/09/27 13:24:41;;;;;;;37.88;16.63;;;;;;;;;;5032722;28;20558;-69
2023/09/27 13:27:09;;;;;;;55.17;33.03;;;;;;;;;;5032290;28;20049;-68
2023/09/27 13:29:39;;;;;;;17.83;5.47;;;;;;;;;;5032681;28;20122;-69
2023/09/27 13:32:07;;;;;;;31.15;21.35;;;;;;;;;;5032593;28;20042;-70
2023/09/27 13:34:34;;;;;;;6.55;2.80;;;;;;;;;;5032652;28;20098;-69
2023/09/27 13:37:02;;;;;;;12.88;3.03;;;;;;;;;;5032507;28;20549;-69
2023/09/27 13:39:30;;;;;;;9.10;3.15;;;;;;;;;;5032618;28;20049;-70
2023/09/27 13:41:57;;;;;;;12.40;3.38;;;;;;;;;;5032944;28;20069;-68
2023/09/27 13:44:26;;;;;;;4.90;2.92;;;;;;;;;;5032266;28;20045;-68
2023/09/27 13:46:55;;;;;;;7.07;3.10;;;;;;;;;;5032509;28;20064;-68
2023/09/27 13:49:22;;;;;;;10.55;3.17;;;;;;;;;;5032183;28;20046;-68
2023/09/27 13:51:50;;;;;;;9.63;3.38;;;;;;;;;;5032432;28;20038;-68
2023/09/27 14:07:51;;;;;;;10.50;3.17;;;;;;;;;;5111220;27;20442;-69
2023/09/27 14:10:21;;;;;;;13.30;3.28;;;;;;;;;;5111111;28;20043;-67
2023/09/27 14:12:50;;;;;;;14.55;3.67;;;;;;;;;;5059530;22;20463;-68
2023/09/27 14:15:18;;;;;;;11.68;3.80;;;;;;;;;;5046466;28;20048;-68
2023/09/27 14:17:46;;;;;;;8.07;3.53;;;;;;;;;;5045267;28;20052;-68
2023/09/27 14:20:15;;;;;;;9.05;3.28;;;;;;;;;;5046158;28;20041;-69
2023/09/27 14:22:45;;;;;;;12.20;3.45;;;;;;;;;;5046302;28;20449;-69
2023/09/27 14:25:13;;;;;;;8.30;3.35;;;;;;;;;;5046174;28;20397;-68
2023/09/27 14:27:41;;;;;;;10.40;3.63;;;;;;;;;;5046180;28;20049;-69
2023/09/27 14:30:09;;;;;;;9.60;3.42;;;;;;;;;;5046107;28;20559;-70
2023/09/27 14:32:39;;;;;;;9.43;3.35;;;;;;;;;;5045966;28;20045;-70
2023/09/27 14:35:07;;;;;;;11.70;3.10;;;;;;;;;;5045705;28;20048;-69
2023/09/27 14:37:37;;;;;;;7.40;2.97;;;;;;;;;;5045970;28;20494;-69
2023/09/27 14:40:09;;;;;;;10.80;3.65;;;;;;;;;;5041450;28;20086;-63
2023/09/27 14:42:43;;;;;;;11.38;4.28;;;;;;;;;;5019977;28;20517;-68
2023/09/27 14:45:11;;;;;;;8.85;3.47;;;;;;;;;;5019077;28;20045;-66
2023/09/27 14:47:57;;;;;;;10.63;3.05;;;;;;;;;;5027033;28;20038;-69
2023/09/27 14:50:25;;;;;;;11.48;3.30;;;;;;;;;;5028454;28;20057;-68
2023/09/27 14:52:53;;;;;;;11.50;2.80;;;;;;;;;;5027471;28;20168;-68
2023/09/27 14:55:23;;;;;;;9.75;3.25;;;;;;;;;;5031481;28;20038;-69
2023/09/27 14:57:50;;;;;;;10.07;3.40;;;;;;;;;;5025874;28;20049;-68
2023/09/27 15:00:25;;;;;;;7.20;3.22;;;;;;;;;;5020510;28;20045;-69